createdAt,value
2018-03-06T00:00:04.259Z,27.00
2018-03-06T00:02:31.847Z,25.93
2018-03-06T00:04:59.788Z,29.40
2018-03-06T00:07:27.354Z,27.27
2018-03-06T00:09:55.236Z,24.63
2018-03-06T00:12:23.113Z,23.83
2018-03-06T00:14:51.071Z,22.27
2018-03-06T00:17:18.537Z,20.13
2018-03-06T00:19:46.094Z,23.00
2018-03-06T00:22:14.018Z,20.53
2018-03-06T00:24:41.526Z,26.30
2018-03-06T00:27:09.493Z,23.73
2018-03-06T00:29:36.966Z,23.73
2018-03-06T00:32:04.429Z,24.30
2018-03-06T00:34:31.992Z,21.17
2018-03-06T00:36:59.462Z,20.00
2018-03-06T00:39:27.017Z,23.83
2018-03-06T00:41:54.482Z,27.13
2018-03-06T00:44:22.008Z,28.37
2018-03-06T00:46:49.828Z,23.90
2018-03-06T00:49:17.690Z,25.03
2018-03-06T00:51:45.161Z,33.07
2018-03-06T00:54:13.109Z,23.73
2018-03-06T00:56:40.679Z,22.17
2018-03-06T00:59:08.154Z,28.70
2018-03-06T01:01:36.023Z,24.63
2018-03-06T01:04:03.478Z,29.07
2018-03-06T01:06:31.039Z,33.07
2018-03-06T01:08:58.961Z,24.27
2018-03-06T01:11:26.473Z,26.43
2018-03-06T01:13:54.037Z,32.23
2018-03-06T01:16:21.507Z,31.37
2018-03-06T01:18:49.057Z,29.07
2018-03-06T01:21:16.526Z,27.17
2018-03-06T01:23:44.090Z,28.60
2018-03-06T01:26:11.654Z,24.03
2018-03-06T01:28:39.130Z,38.20
2018-03-06T01:31:07.005Z,30.50
2018-03-06T01:33:34.871Z,27.50
2018-03-06T01:36:05.386Z,29.30
2018-03-06T01:38:32.847Z,37.40
2018-03-06T01:41:00.410Z,26.20
2018-03-06T01:43:27.873Z,35.30
2018-03-06T01:45:55.440Z,27.10
2018-03-06T01:48:23.000Z,28.00
2018-03-06T01:50:50.473Z,31.30
2018-03-06T01:53:18.022Z,33.00
2018-03-06T01:55:45.604Z,33.70
2018-03-06T01:58:13.070Z,28.50
2018-03-06T02:00:40.944Z,32.23
2018-03-06T02:03:08.799Z,31.17
2018-03-06T02:05:36.298Z,28.50
2018-03-06T02:08:03.761Z,29.47
2018-03-06T02:10:31.251Z,34.67
2018-03-06T02:12:59.362Z,30.53
2018-03-06T02:15:26.829Z,33.47
2018-03-06T02:17:54.291Z,30.77
2018-03-06T02:20:21.854Z,29.00
2018-03-06T02:22:49.735Z,28.03
2018-03-06T02:25:17.588Z,27.63
2018-03-06T02:27:45.065Z,31.90
2018-03-06T02:30:12.942Z,39.83
2018-03-06T02:32:40.495Z,35.63
2018-03-06T02:35:08.382Z,29.60
2018-03-06T02:37:36.263Z,32.90
2018-03-06T02:40:03.734Z,35.27
2018-03-06T02:42:31.274Z,35.43
2018-03-06T02:44:59.163Z,31.87
2018-03-06T02:47:27.098Z,28.50
2018-03-06T02:49:54.589Z,35.27
2018-03-06T02:52:22.537Z,31.60
2018-03-06T02:54:50.094Z,31.43
2018-03-06T02:57:17.593Z,32.77
2018-03-06T02:59:45.526Z,40.10
2018-03-06T03:02:13.003Z,33.10
2018-03-06T03:04:40.572Z,35.87
2018-03-06T03:07:08.460Z,34.40
2018-03-06T03:09:36.387Z,36.60
2018-03-06T03:12:03.873Z,44.13
2018-03-06T03:14:31.325Z,39.03
2018-03-06T03:16:58.795Z,42.17
2018-03-06T03:19:26.357Z,37.47
2018-03-06T03:21:54.496Z,41.17
2018-03-06T03:24:21.968Z,41.53
2018-03-06T03:26:49.433Z,39.33
2018-03-06T03:29:16.918Z,42.10
2018-03-06T03:31:44.479Z,36.27
2018-03-06T03:34:11.943Z,34.50
2018-03-06T03:36:39.435Z,46.50
2018-03-06T03:39:07.306Z,37.03
2018-03-06T03:41:35.196Z,43.23
2018-03-06T03:44:02.679Z,43.50
2018-03-06T03:46:30.134Z,42.93
2018-03-06T03:48:57.586Z,43.73
2018-03-06T03:51:25.095Z,41.97
2018-03-06T03:53:52.564Z,48.60
2018-03-06T03:56:20.119Z,51.30
2018-03-06T03:58:47.574Z,48.43
2018-03-06T04:01:15.146Z,49.83
2018-03-06T04:03:43.475Z,49.77
2018-03-06T04:06:10.935Z,47.73
2018-03-06T04:08:38.446Z,47.97
2018-03-06T04:11:05.918Z,50.00
2018-03-06T04:13:33.385Z,43.33
2018-03-06T04:16:00.852Z,48.70
2018-03-06T04:18:28.814Z,50.53
2018-03-06T04:20:56.688Z,49.40
2018-03-06T04:23:24.163Z,42.10
2018-03-06T04:25:51.626Z,48.50
2018-03-06T04:28:19.485Z,46.00
2018-03-06T04:30:47.029Z,51.50
2018-03-06T04:33:14.612Z,55.87
2018-03-06T04:35:42.097Z,58.20
2018-03-06T04:38:09.967Z,54.67
2018-03-06T04:40:38.255Z,57.13
2018-03-06T04:43:05.735Z,56.80
2018-03-06T04:45:33.215Z,57.47
2018-03-06T04:48:00.812Z,55.53
2018-03-06T04:50:28.282Z,61.37
2018-03-06T04:52:56.136Z,61.10
2018-03-06T04:55:23.601Z,54.13
2018-03-06T04:57:51.085Z,56.97
2018-03-06T05:00:18.949Z,65.13
2018-03-06T05:02:46.910Z,61.73
2018-03-06T05:05:14.392Z,62.73
2018-03-06T05:07:42.249Z,55.33
2018-03-06T05:10:09.729Z,63.97
2018-03-06T05:12:37.598Z,64.87
2018-03-06T05:15:05.452Z,66.90
2018-03-06T05:17:33.259Z,66.57
2018-03-06T05:20:00.738Z,71.50
2018-03-06T05:22:28.259Z,67.10
2018-03-06T05:24:56.232Z,58.10
2018-03-06T05:27:24.088Z,56.73
2018-03-06T05:29:51.577Z,65.47
2018-03-06T05:32:19.437Z,61.57
2018-03-06T05:34:47.292Z,61.97
2018-03-06T05:37:14.846Z,66.57
2018-03-06T05:39:42.451Z,53.33
2018-03-06T05:42:09.976Z,66.30
2018-03-06T05:44:37.534Z,64.70
2018-03-06T05:47:04.996Z,65.17
2018-03-06T05:49:32.476Z,57.77
2018-03-06T05:52:00.039Z,53.70
2018-03-06T05:54:27.902Z,70.77
2018-03-06T05:56:55.366Z,54.77
2018-03-06T05:59:22.946Z,61.63
2018-03-06T06:01:50.814Z,73.30
2018-03-06T06:04:18.294Z,68.43
2018-03-06T06:06:46.148Z,61.37
2018-03-06T06:09:13.627Z,70.93
2018-03-06T06:11:41.489Z,60.70
2018-03-06T06:14:09.437Z,62.93
2018-03-06T06:16:36.926Z,69.43
2018-03-06T06:19:04.768Z,62.93
2018-03-06T06:21:32.234Z,71.70
2018-03-06T06:23:59.723Z,64.43
2018-03-06T06:26:27.669Z,67.77
2018-03-06T06:28:55.244Z,66.90
2018-03-06T06:31:22.734Z,73.33
2018-03-06T06:33:50.197Z,64.20
2018-03-06T06:36:17.671Z,74.03
2018-03-06T06:38:45.138Z,76.83
2018-03-06T06:41:12.604Z,72.30
2018-03-06T06:43:40.112Z,71.77
2018-03-06T06:46:07.575Z,77.13
2018-03-06T06:48:35.049Z,73.80
2018-03-06T06:51:02.517Z,69.90
2018-03-06T06:53:30.383Z,78.43
2018-03-06T06:55:58.241Z,70.47
2018-03-06T06:58:26.207Z,74.43
2018-03-06T07:00:53.752Z,77.50
2018-03-06T07:03:21.212Z,69.03
2018-03-06T07:05:48.686Z,81.93
2018-03-06T07:08:16.755Z,83.53
2018-03-06T07:10:44.218Z,77.97
2018-03-06T07:13:11.700Z,81.80
2018-03-06T07:15:39.164Z,79.53
2018-03-06T07:18:06.717Z,80.63
2018-03-06T07:20:34.196Z,84.33
2018-03-06T07:23:01.742Z,84.33
2018-03-06T07:25:29.229Z,83.43
2018-03-06T07:27:57.081Z,79.03
2018-03-06T07:30:24.654Z,87.33
2018-03-06T07:32:52.131Z,80.03
2018-03-06T07:35:19.982Z,93.63
2018-03-06T07:37:47.458Z,81.73
2018-03-06T07:40:15.333Z,88.90
2018-03-06T07:42:43.208Z,96.23
2018-03-06T07:45:11.146Z,95.13
2018-03-06T07:47:38.608Z,98.33
2018-03-06T07:50:06.074Z,93.40
2018-03-06T07:52:33.532Z,91.83
2018-03-06T07:55:01.106Z,94.07
2018-03-06T07:57:28.583Z,90.83
2018-03-06T07:59:56.496Z,90.03
2018-03-06T08:02:23.999Z,88.87
2018-03-06T08:04:51.492Z,92.30
2018-03-06T08:07:19.396Z,87.00
2018-03-06T08:09:46.875Z,80.27
2018-03-06T08:12:14.353Z,81.30
2018-03-06T08:14:41.824Z,92.33
2018-03-06T08:17:09.276Z,94.37
2018-03-06T08:19:36.878Z,79.67
2018-03-06T08:22:04.358Z,77.57
2018-03-06T08:24:31.816Z,82.10
2018-03-06T08:26:59.326Z,82.93
2018-03-06T08:29:26.777Z,87.53
2018-03-06T08:31:54.373Z,88.40
2018-03-06T08:34:21.921Z,95.73
2018-03-06T08:36:49.479Z,98.17
2018-03-06T08:39:17.485Z,92.10
2018-03-06T08:41:45.370Z,95.23
2018-03-06T08:44:13.360Z,95.60
2018-03-06T08:46:40.854Z,89.90
2018-03-06T08:49:08.314Z,91.47
2018-03-06T08:51:35.919Z,91.83
2018-03-06T08:54:03.382Z,93.93
2018-03-06T08:56:31.266Z,86.47
2018-03-06T08:58:59.145Z,94.57
2018-03-06T09:01:26.641Z,94.27
2018-03-06T09:03:54.101Z,95.90
2018-03-06T09:06:21.555Z,86.23
2018-03-06T09:08:49.070Z,87.77
2018-03-06T09:11:16.945Z,102.20
2018-03-06T09:13:44.801Z,94.43
2018-03-06T09:16:12.278Z,86.77
2018-03-06T09:18:40.125Z,93.90
2018-03-06T09:21:07.720Z,100.77
2018-03-06T09:23:35.576Z,89.20
2018-03-06T09:26:03.042Z,94.60
2018-03-06T09:28:30.914Z,91.40
2018-03-06T09:30:58.871Z,88.03
2018-03-06T09:33:26.336Z,94.63
2018-03-06T09:35:53.810Z,96.50
2018-03-06T09:38:21.675Z,87.80
2018-03-06T09:40:49.155Z,90.23
2018-03-06T09:43:17.098Z,93.73
2018-03-06T09:45:44.650Z,87.23
2018-03-06T09:48:12.102Z,93.17
2018-03-06T09:50:39.573Z,104.23
2018-03-06T09:53:07.130Z,92.00
2018-03-06T09:55:34.615Z,88.87
2018-03-06T09:58:03.530Z,89.13
2018-03-06T10:00:31.392Z,85.17
2018-03-06T10:02:59.008Z,96.23
2018-03-06T10:05:26.509Z,98.00
2018-03-06T10:07:53.996Z,86.93
2018-03-06T10:10:21.868Z,89.83
2018-03-06T10:12:49.733Z,84.23
2018-03-06T10:15:17.802Z,93.57
2018-03-06T10:17:45.268Z,94.90
2018-03-06T10:20:13.414Z,89.20
2018-03-06T10:22:40.879Z,88.03
2018-03-06T10:25:08.349Z,90.83
2018-03-06T10:27:35.841Z,79.97
2018-03-06T10:30:03.336Z,74.73
2018-03-06T10:32:30.832Z,86.67
2018-03-06T10:34:58.288Z,87.57
2018-03-06T10:37:25.782Z,84.97
2018-03-06T10:39:53.661Z,94.27
2018-03-06T10:42:21.529Z,87.87
2018-03-06T10:44:49.912Z,84.70
2018-03-06T10:47:17.801Z,100.40
2018-03-06T10:49:45.258Z,89.83
2018-03-06T10:52:13.209Z,87.90
2018-03-06T10:54:40.747Z,87.83
2018-03-06T10:57:08.239Z,89.90
2018-03-06T10:59:35.773Z,95.10
2018-03-06T11:02:04.174Z,116.03
2018-03-06T11:04:32.056Z,94.37
2018-03-06T11:06:59.884Z,82.70
2018-03-06T11:09:27.384Z,84.27
2018-03-06T11:11:54.907Z,98.90
2018-03-06T11:14:22.390Z,88.17
2018-03-06T11:16:49.907Z,97.23
2018-03-06T11:19:17.373Z,99.80
2018-03-06T11:21:45.108Z,87.83
2018-03-06T11:24:12.602Z,86.63
2018-03-06T11:26:40.137Z,96.47
2018-03-06T11:29:08.023Z,89.77
2018-03-06T11:31:35.733Z,88.37
2018-03-06T11:34:03.252Z,89.20
2018-03-06T11:36:31.118Z,89.03
2018-03-06T11:38:59.498Z,95.07
2018-03-06T11:41:27.457Z,89.83
2018-03-06T11:43:55.175Z,83.37
2018-03-06T11:46:22.682Z,85.37
2018-03-06T11:48:50.274Z,89.87
2018-03-06T11:51:18.169Z,92.33
2018-03-06T11:53:45.723Z,82.73
2018-03-06T11:56:13.214Z,90.10
2018-03-06T11:58:40.695Z,94.00
2018-03-06T12:01:08.320Z,87.83
2018-03-06T12:03:35.882Z,85.87
2018-03-06T12:06:03.520Z,86.80
2018-03-06T12:08:31.391Z,90.90
2018-03-06T12:10:59.273Z,88.33
2018-03-06T12:13:27.194Z,83.57
2018-03-06T12:15:54.705Z,86.90
2018-03-06T12:18:22.583Z,83.77
2018-03-06T12:20:50.094Z,86.43
2018-03-06T12:23:17.728Z,87.40
2018-03-06T12:25:45.200Z,83.63
2018-03-06T12:28:12.860Z,81.40
2018-03-06T12:30:40.644Z,81.80
2018-03-06T12:33:08.200Z,83.77
2018-03-06T12:35:35.664Z,87.83
2018-03-06T12:38:03.150Z,101.40
2018-03-06T12:40:30.678Z,92.97
2018-03-06T12:42:58.152Z,84.50
2018-03-06T12:45:25.654Z,84.70
2018-03-06T12:47:53.208Z,86.80
2018-03-06T12:50:20.696Z,87.13
2018-03-06T12:52:48.598Z,84.90
2018-03-06T12:55:16.080Z,89.50
2018-03-06T12:57:43.558Z,83.33
2018-03-06T13:00:11.040Z,77.23
2018-03-06T13:02:38.608Z,80.73
2018-03-06T13:05:06.100Z,74.30
2018-03-06T13:07:33.970Z,78.03
2018-03-06T13:10:01.477Z,74.73
2018-03-06T13:12:28.964Z,82.30
2018-03-06T13:14:56.541Z,87.17
2018-03-06T13:17:24.038Z,76.53
2018-03-06T13:19:51.511Z,79.10
2018-03-06T13:22:19.023Z,83.73
2018-03-06T13:24:46.902Z,75.60
2018-03-06T13:27:15.630Z,83.80
2018-03-06T13:29:43.117Z,83.03
2018-03-06T13:32:10.746Z,83.87
2018-03-06T13:34:38.425Z,86.80
2018-03-06T13:37:06.393Z,92.80
2018-03-06T13:39:34.023Z,85.47
2018-03-06T13:42:01.584Z,91.53
2018-03-06T13:44:29.048Z,83.67
2018-03-06T13:46:56.588Z,88.27
2018-03-06T13:49:24.078Z,95.00
2018-03-06T13:51:51.535Z,86.30
2018-03-06T13:54:19.422Z,88.33
2018-03-06T13:56:47.367Z,85.50
2018-03-06T13:59:14.853Z,88.87
2018-03-06T14:01:42.916Z,80.77
2018-03-06T14:04:10.384Z,79.13
2018-03-06T14:06:38.267Z,88.83
2018-03-06T14:09:06.162Z,75.50
2018-03-06T14:11:33.620Z,70.27
2018-03-06T14:14:01.135Z,77.20
2018-03-06T14:16:28.610Z,82.67
2018-03-06T14:18:56.474Z,82.20
2018-03-06T14:21:23.946Z,81.50
2018-03-06T14:23:51.830Z,91.77
2018-03-06T14:26:19.690Z,87.40
2018-03-06T14:28:47.240Z,88.73
2018-03-06T14:31:14.711Z,95.70
2018-03-06T14:33:42.265Z,78.07
2018-03-06T14:36:09.829Z,81.90
2018-03-06T14:38:37.296Z,74.80
2018-03-06T14:41:04.762Z,73.90
2018-03-06T14:43:32.255Z,86.23
2018-03-06T14:45:59.700Z,71.57
2018-03-06T14:48:27.552Z,72.30
2018-03-06T14:50:55.110Z,73.77
2018-03-06T14:53:22.665Z,67.67
2018-03-06T14:55:50.158Z,71.43
2018-03-06T14:58:17.652Z,72.83
2018-03-06T15:00:45.160Z,67.90
2018-03-06T15:03:12.661Z,74.43
2018-03-06T15:05:40.153Z,71.80
2018-03-06T15:08:07.614Z,66.43
2018-03-06T15:10:35.090Z,78.83
2018-03-06T15:13:02.585Z,67.33
2018-03-06T15:15:30.050Z,67.40
2018-03-06T15:17:57.626Z,70.17
2018-03-06T15:20:25.069Z,60.03
2018-03-06T15:22:52.538Z,65.80
2018-03-06T15:25:20.013Z,66.83
2018-03-06T15:27:47.875Z,67.60
2018-03-06T15:30:15.759Z,69.53
2018-03-06T15:32:43.632Z,75.60
2018-03-06T15:35:11.508Z,64.80
2018-03-06T15:37:39.382Z,64.23
2018-03-06T15:40:06.891Z,64.77
2018-03-06T15:42:34.406Z,65.13
2018-03-06T15:45:02.366Z,56.87
2018-03-06T15:47:30.268Z,67.17
2018-03-06T15:49:57.762Z,65.47
2018-03-06T15:52:25.922Z,68.40
2018-03-06T15:54:53.451Z,69.27
2018-03-06T15:57:21.344Z,65.07
2018-03-06T15:59:48.844Z,66.67
2018-03-06T16:02:16.439Z,66.00
2018-03-06T16:04:44.010Z,68.57
2018-03-06T16:07:11.924Z,62.43
2018-03-06T16:09:39.427Z,59.20
2018-03-06T16:12:07.421Z,68.03
2018-03-06T16:14:35.319Z,69.10
2018-03-06T16:17:02.877Z,70.07
2018-03-06T16:19:30.437Z,60.93
2018-03-06T16:21:57.978Z,57.53
2018-03-06T16:24:25.946Z,62.37
2018-03-06T16:26:53.446Z,64.97
2018-03-06T16:29:21.329Z,68.30
2018-03-06T16:31:49.122Z,68.03
2018-03-06T16:34:16.731Z,64.50
2018-03-06T16:36:44.622Z,64.67
2018-03-06T16:39:12.118Z,61.47
2018-03-06T16:41:39.630Z,65.47
2018-03-06T16:44:07.566Z,64.77
2018-03-06T16:46:35.059Z,70.97
2018-03-06T16:49:02.953Z,70.83
2018-03-06T16:51:30.453Z,64.37
2018-03-06T16:53:57.961Z,73.07
2018-03-06T16:56:25.860Z,64.50
2018-03-06T16:58:53.387Z,67.57
2018-03-06T17:01:20.967Z,76.53
2018-03-06T17:03:48.860Z,73.63
2018-03-06T17:06:16.385Z,71.70
2018-03-06T17:08:43.940Z,85.13
2018-03-06T17:11:11.424Z,78.60
2018-03-06T17:13:39.327Z,74.83
2018-03-06T17:16:07.013Z,70.13
2018-03-06T17:18:34.478Z,69.77
2018-03-06T17:21:01.986Z,69.87
2018-03-06T17:23:29.884Z,80.93
2018-03-06T17:25:57.391Z,78.03
2018-03-06T17:28:24.952Z,73.70
2018-03-06T17:30:52.680Z,77.70
2018-03-06T17:33:20.212Z,74.77
2018-03-06T17:35:48.113Z,73.13
2018-03-06T17:38:17.031Z,78.50
2018-03-06T17:40:44.625Z,80.17
2018-03-06T17:43:12.126Z,80.13
2018-03-06T17:45:39.686Z,69.60
2018-03-06T17:48:07.245Z,75.73
2018-03-06T17:50:35.153Z,63.73
2018-03-06T17:53:02.702Z,70.83
2018-03-06T17:55:30.217Z,73.67
2018-03-06T17:57:57.731Z,82.50
2018-03-06T18:00:25.239Z,91.20
2018-03-06T18:02:52.802Z,80.83
2018-03-06T18:05:20.442Z,75.57
2018-03-06T18:07:48.104Z,74.50
2018-03-06T18:10:16.028Z,71.67
2018-03-06T18:12:43.580Z,72.40
2018-03-06T18:15:11.159Z,83.20
2018-03-06T18:17:39.289Z,83.10
2018-03-06T18:20:06.905Z,80.03
2018-03-06T18:22:34.643Z,76.80
2018-03-06T18:25:02.260Z,83.57
2018-03-06T18:27:29.777Z,75.97
2018-03-06T18:29:57.361Z,73.10
2018-03-06T18:32:25.370Z,76.70
2018-03-06T18:34:52.879Z,80.50
2018-03-06T18:37:20.387Z,73.27
2018-03-06T18:39:47.911Z,77.80
2018-03-06T18:42:15.454Z,79.77
2018-03-06T18:44:43.063Z,77.70
2018-03-06T18:47:11.151Z,80.00
2018-03-06T19:03:10.225Z,78.77
2018-03-06T19:05:49.723Z,82.33
2018-03-06T19:08:18.514Z,91.60
2018-03-06T19:10:46.466Z,90.70
2018-03-06T19:13:13.998Z,88.97
2018-03-06T19:15:41.558Z,80.10
2018-03-06T19:18:09.127Z,91.20
2018-03-06T19:20:36.659Z,94.40
2018-03-06T19:23:04.662Z,86.17
2018-03-06T19:25:32.211Z,72.97
2018-03-06T19:27:59.795Z,78.10
2018-03-06T19:30:27.437Z,82.43
2018-03-06T19:32:54.964Z,83.43
2018-03-06T19:35:22.534Z,81.43
2018-03-06T19:37:50.081Z,87.40
2018-03-06T19:40:17.554Z,84.23
2018-03-06T19:42:45.145Z,88.93
2018-03-06T19:45:13.037Z,84.67
2018-03-06T19:47:40.555Z,91.60
2018-03-06T19:50:08.021Z,85.90
2018-03-06T19:52:35.559Z,78.03
2018-03-06T19:55:03.036Z,77.40
2018-03-06T19:57:30.541Z,77.10
2018-03-06T19:59:58.081Z,82.00
2018-03-06T20:02:25.977Z,88.63
2018-03-06T20:04:53.477Z,80.10
2018-03-06T20:07:21.063Z,82.27
2018-03-06T20:09:48.543Z,78.83
2018-03-06T20:12:16.527Z,86.30
2018-03-06T20:14:49.981Z,84.43
2018-03-06T20:17:17.596Z,83.87
2018-03-06T20:19:45.104Z,80.17
2018-03-06T20:22:12.746Z,78.67
2018-03-06T20:24:46.078Z,73.00
2018-03-06T20:27:13.718Z,75.87
2018-03-06T20:29:41.259Z,76.70
2018-03-06T20:32:14.699Z,83.77
2018-03-06T20:34:42.289Z,71.93
2018-03-06T20:37:10.869Z,82.40
2018-03-06T20:39:44.572Z,81.90
2018-03-06T20:42:12.878Z,76.57
2018-03-06T20:44:40.737Z,67.27
2018-03-06T20:47:15.192Z,75.03
2018-03-06T20:49:42.711Z,82.63
2018-03-06T20:52:10.674Z,79.27
2018-03-06T20:54:44.055Z,71.60
2018-03-06T20:57:11.537Z,78.87
2018-03-06T20:59:38.997Z,82.43
2018-03-06T21:02:06.485Z,69.17
2018-03-06T21:04:34.454Z,64.93
2018-03-06T21:07:02.318Z,63.47
2018-03-06T21:09:30.283Z,68.27
2018-03-06T21:11:57.759Z,70.70
2018-03-06T21:14:25.712Z,57.07
2018-03-06T21:16:53.235Z,56.23
2018-03-06T21:19:20.766Z,54.57
2018-03-06T21:21:48.315Z,54.10
2018-03-06T21:24:15.858Z,52.77
2018-03-06T21:26:43.429Z,48.43
2018-03-06T21:29:11.049Z,48.60
2018-03-06T21:31:38.552Z,55.87
2018-03-06T21:34:06.029Z,55.50
2018-03-06T21:36:34.363Z,51.63
2018-03-06T21:39:02.039Z,48.57
2018-03-06T21:41:29.521Z,44.33
2018-03-06T21:43:57.083Z,56.20
2018-03-06T21:46:24.562Z,47.03
2018-03-06T21:48:52.022Z,44.93
2018-03-06T21:51:19.581Z,44.53
2018-03-06T21:53:47.442Z,32.70
2018-03-06T21:56:14.907Z,34.90
2018-03-06T21:58:42.807Z,29.17
2018-03-06T22:01:10.657Z,22.77
2018-03-06T22:03:38.642Z,29.57
2018-03-06T22:06:06.112Z,27.63
2018-03-06T22:08:33.984Z,30.97
2018-03-06T22:11:01.850Z,32.27
2018-03-06T22:13:29.385Z,28.10
2018-03-06T22:15:56.863Z,26.03
2018-03-06T22:18:24.366Z,36.60
2018-03-06T22:20:51.857Z,33.87
2018-03-06T22:23:19.323Z,28.70
2018-03-06T22:25:46.896Z,28.83
2018-03-06T22:28:14.358Z,25.97
2018-03-06T22:30:42.327Z,27.00
2018-03-06T22:33:09.798Z,27.40
2018-03-06T22:35:38.223Z,28.37
2018-03-06T22:38:06.163Z,26.50
2018-03-06T22:40:33.723Z,25.17
2018-03-06T22:43:01.217Z,25.30
2018-03-06T22:45:29.085Z,23.90
2018-03-06T22:47:56.556Z,25.60
2018-03-06T22:50:24.424Z,28.83
2018-03-06T22:52:52.299Z,30.47
2018-03-06T22:55:20.166Z,29.73
2018-03-06T22:57:48.038Z,25.27
2018-03-06T23:00:15.940Z,27.00
2018-03-06T23:02:43.421Z,28.87
2018-03-06T23:05:10.884Z,24.53
2018-03-06T23:07:38.376Z,24.50
2018-03-06T23:10:05.863Z,26.50
2018-03-06T23:12:33.402Z,24.53
2018-03-06T23:15:00.897Z,24.60
2018-03-06T23:17:28.833Z,21.90
2018-03-06T23:19:56.282Z,21.07
2018-03-06T23:22:23.766Z,23.07
2018-03-06T23:24:51.301Z,18.57
2018-03-06T23:27:18.734Z,25.20
2018-03-06T23:29:46.247Z,26.13
2018-03-06T23:32:13.702Z,21.83
2018-03-06T23:34:41.162Z,27.07
2018-03-06T23:37:08.620Z,22.57
2018-03-06T23:39:36.116Z,27.30
2018-03-06T23:42:03.994Z,24.77
2018-03-06T23:44:32.041Z,26.37
2018-03-06T23:46:59.509Z,26.73
2018-03-06T23:49:27.366Z,23.80
2018-03-06T23:51:54.931Z,24.50
2018-03-06T23:54:22.408Z,27.73
2018-03-06T23:56:49.953Z,27.53
2018-03-06T23:59:17.413Z,25.60
